Time;durP1;ratioP1;P1;durP2;ratioP2;P2;SDS_P1;SDS_P2;PMS_P1;PMS_P2;Temp;Humidity;BMP_temperature;BMP_pressure;BME280_temperature;BME280_humidity;BME280_pressure;Samples;Min_cycle;Max_cycle;Signal;HPM_P1;HPM_P2
2023/06/19 00:00:52;;;;;;;4.47;2.90;;;21.10;82.20;;;;;;5028864;28;20227;-71
2023/06/19 00:03:17;;;;;;;7.13;3.00;;;21.00;82.80;;;;;;5029803;28;20643;-71
2023/06/19 00:05:43;;;;;;;8.80;4.00;;;21.00;83.20;;;;;;5030320;28;20470;-70
2023/06/19 00:08:09;;;;;;;6.93;3.47;;;20.90;82.90;;;;;;5034837;28;20173;-70
2023/06/19 00:10:34;;;;;;;5.90;3.40;;;20.80;83.40;;;;;;5029877;28;20183;-70
2023/06/19 00:13:00;;;;;;;6.77;3.23;;;20.70;84.00;;;;;;5030377;28;20178;-71
2023/06/19 00:15:29;;;;;;;5.80;3.43;;;20.80;81.70;;;;;;5041084;28;20305;-71
2023/06/19 00:17:55;;;;;;;5.23;3.20;;;20.90;82.90;;;;;;5030495;28;20210;-70
2023/06/19 00:20:21;;;;;;;9.97;3.27;;;20.90;83.50;;;;;;5029837;28;20599;-70
2023/06/19 00:22:51;;;;;;;4.50;3.07;;;20.90;83.00;;;;;;5030315;28;21044;-70
2023/06/19 00:25:20;;;;;;;6.10;3.50;;;20.90;81.50;;;;;;5038556;28;20178;-70
2023/06/19 00:27:46;;;;;;;5.50;3.57;;;20.90;82.80;;;;;;5030576;28;20873;-70
2023/06/19 00:30:12;;;;;;;6.93;3.17;;;20.90;82.10;;;;;;5030087;28;20538;-69
2023/06/19 00:32:46;;;;;;;6.90;3.73;;;20.80;82.40;;;;;;5028209;28;20593;-69
2023/06/19 00:35:13;;;;;;;5.60;3.50;;;20.70;83.20;;;;;;5029875;28;20187;-70
2023/06/19 00:37:39;;;;;;;8.43;3.10;;;20.70;82.90;;;;;;5029985;28;20500;-69
2023/06/19 00:40:08;;;;;;;6.70;3.50;;;20.60;83.30;;;;;;5029765;28;20548;-70
2023/06/19 00:42:33;;;;;;;5.87;3.53;;;20.70;83.60;;;;;;5029721;28;20182;-70
2023/06/19 00:44:59;;;;;;;8.63;3.37;;;20.60;84.10;;;;;;5029215;28;21027;-69
2023/06/19 00:47:25;;;;;;;6.50;3.80;;;20.50;84.50;;;;;;5028261;28;20301;-70
2023/06/19 00:49:51;;;;;;;6.67;3.50;;;20.50;85.00;;;;;;5034824;28;20182;-69
2023/06/19 00:52:17;;;;;;;4.43;2.73;;;20.50;85.30;;;;;;5034189;28;20417;-70
2023/06/19 00:54:43;;;;;;;6.53;3.30;;;20.50;85.90;;;;;;5033587;28;20190;-70
2023/06/19 00:57:10;;;;;;;5.17;3.17;;;20.50;85.40;;;;;;5034155;28;20501;-70
2023/06/19 00:59:36;;;;;;;9.57;3.20;;;20.50;85.90;;;;;;5033527;28;20815;-70
2023/06/19 01:02:02;;;;;;;7.83;3.40;;;20.50;85.70;;;;;;5031455;28;20530;-69
2023/06/19 01:04:28;;;;;;;4.40;3.00;;;20.60;86.20;;;;;;5033786;28;21011;-70
2023/06/19 01:06:57;;;;;;;3.20;2.43;;;20.60;85.70;;;;;;5033532;28;20417;-70
2023/06/19 01:09:33;;;;;;;5.50;3.27;;;20.60;86.20;;;;;;5020724;28;20187;-70
2023/06/19 01:12:06;;;;;;;5.40;3.60;;;20.70;84.80;;;;;;5033069;28;20504;-70
2023/06/19 01:14:44;;;;;;;4.90;2.77;;;20.80;83.90;;;;;;5039301;28;20408;-70
2023/06/19 01:17:10;;;;;;;8.63;3.50;;;21.00;82.20;;;;;;5040733;28;20443;-69
2023/06/19 01:19:36;;;;;;;4.67;2.50;;;21.00;81.60;;;;;;5033262;28;20449;-70
2023/06/19 01:22:04;;;;;;;5.57;2.20;;;21.10;80.20;;;;;;5037977;28;20499;-70
2023/06/19 01:24:29;;;;;;;5.20;2.53;;;21.20;80.30;;;;;;5031308;28;20185;-70
2023/06/19 01:26:55;;;;;;;4.80;2.33;;;21.30;80.20;;;;;;5024572;28;21020;-69
2023/06/19 01:29:21;;;;;;;3.80;2.70;;;21.30;80.60;;;;;;5031574;28;20214;-69
2023/06/19 01:31:56;;;;;;;4.10;2.57;;;21.30;81.10;;;;;;5032070;28;20597;-69
2023/06/19 01:34:25;;;;;;;4.53;2.90;;;21.20;81.60;;;;;;5033598;28;20173;-70
2023/06/19 01:36:52;;;;;;;5.00;2.73;;;21.20;81.40;;;;;;5032901;28;20421;-70
2023/06/19 01:39:19;;;;;;;4.60;2.17;;;21.10;82.40;;;;;;5030746;28;20491;-69
2023/06/19 01:41:46;;;;;;;3.23;1.73;;;21.10;83.50;;;;;;5034526;28;20414;-69
2023/06/19 01:44:12;;;;;;;5.93;2.97;;;21.00;84.10;;;;;;5033019;28;20990;-69
2023/06/19 01:46:37;;;;;;;2.50;1.40;;;20.90;84.80;;;;;;5033157;28;20445;-69
2023/06/19 01:49:08;;;;;;;6.20;2.70;;;20.90;85.40;;;;;;5031151;28;20186;-70
2023/06/19 01:51:34;;;;;;;3.20;1.93;;;20.80;85.70;;;;;;5025684;28;20812;-70
2023/06/19 01:54:00;;;;;;;7.80;2.87;;;20.80;86.30;;;;;;5032801;28;20417;-70
2023/06/19 01:56:26;;;;;;;2.87;1.67;;;20.70;86.50;;;;;;5033043;28;20433;-69
2023/06/19 01:58:51;;;;;;;4.60;2.43;;;20.70;86.40;;;;;;5031608;28;20206;-70
2023/06/19 02:01:17;;;;;;;3.77;2.50;;;20.70;86.60;;;;;;5030475;28;20490;-70
2023/06/19 02:03:42;;;;;;;3.33;2.00;;;20.70;86.80;;;;;;5020806;28;20197;-70
2023/06/19 02:06:08;;;;;;;5.93;2.07;;;20.70;86.80;;;;;;5032504;28;20221;-69
2023/06/19 02:08:34;;;;;;;3.80;2.07;;;20.70;87.10;;;;;;5032591;28;20214;-69
2023/06/19 02:10:59;;;;;;;4.40;1.70;;;20.60;88.10;;;;;;5034806;28;20183;-69
2023/06/19 02:13:25;;;;;;;3.33;2.10;;;20.60;87.50;;;;;;5033501;28;20265;-69
2023/06/19 02:15:51;;;;;;;3.00;1.83;;;20.60;87.50;;;;;;5031405;28;20698;-69
2023/06/19 02:18:16;;;;;;;11.17;2.30;;;20.50;87.80;;;;;;5032212;28;20203;-69
2023/06/19 02:20:42;;;;;;;3.90;1.97;;;20.50;88.10;;;;;;5031563;28;20624;-70
2023/06/19 02:23:07;;;;;;;4.77;2.10;;;20.50;88.60;;;;;;5033536;28;20174;-69
2023/06/19 02:25:35;;;;;;;3.07;1.63;;;20.40;88.70;;;;;;5032177;28;20574;-70
2023/06/19 02:28:00;;;;;;;4.63;2.00;;;20.40;89.20;;;;;;5031939;28;20213;-70
2023/06/19 02:30:26;;;;;;;3.60;1.90;;;20.30;89.70;;;;;;5030848;28;20479;-69
2023/06/19 02:32:52;;;;;;;5.50;1.80;;;20.30;90.00;;;;;;5030339;28;20531;-70
2023/06/19 02:35:17;;;;;;;3.33;1.90;;;20.30;90.00;;;;;;5030949;28;20195;-70
2023/06/19 02:37:44;;;;;;;3.00;1.83;;;20.30;89.90;;;;;;5031157;28;20183;-70
2023/06/19 02:40:10;;;;;;;5.93;3.00;;;20.40;89.80;;;;;;5031227;28;20229;-69
2023/06/19 02:42:36;;;;;;;4.17;1.97;;;20.30;90.10;;;;;;5031527;28;20417;-70
2023/06/19 02:45:04;;;;;;;2.67;1.63;;;20.30;90.10;;;;;;5033727;28;21095;-70
2023/06/19 02:47:33;;;;;;;2.80;1.63;;;20.20;90.30;;;;;;5027853;28;20182;-70
2023/06/19 02:50:00;;;;;;;4.60;1.93;;;20.20;90.40;;;;;;5029810;28;20751;-69
2023/06/19 02:52:26;;;;;;;9.13;2.27;;;20.20;90.50;;;;;;5027416;28;20441;-70
2023/06/19 02:54:52;;;;;;;4.33;1.93;;;20.10;91.00;;;;;;5030622;28;20425;-69
2023/06/19 02:57:17;;;;;;;3.97;1.63;;;20.10;91.00;;;;;;5034518;28;20455;-70
2023/06/19 02:59:43;;;;;;;4.80;2.60;;;20.10;91.20;;;;;;5033622;28;20221;-70
2023/06/19 03:02:09;;;;;;;5.40;1.80;;;20.00;91.10;;;;;;5037332;28;20238;-69
2023/06/19 03:04:34;;;;;;;4.03;2.27;;;20.10;91.10;;;;;;5030696;28;20195;-69
2023/06/19 03:07:00;;;;;;;2.93;1.73;;;20.20;91.30;;;;;;5030811;28;20220;-69
2023/06/19 03:09:26;;;;;;;2.77;1.80;;;20.10;91.50;;;;;;5029560;28;20626;-70
2023/06/19 03:11:52;;;;;;;4.23;2.20;;;20.00;91.90;;;;;;5029914;28;20193;-70
2023/06/19 03:14:18;;;;;;;2.53;1.47;;;19.90;92.10;;;;;;5029465;28;20441;-70
2023/06/19 03:16:43;;;;;;;4.97;1.90;;;20.00;92.10;;;;;;5034414;28;20186;-70
2023/06/19 03:19:09;;;;;;;3.70;1.90;;;20.00;91.90;;;;;;5037004;28;20199;-70
2023/06/19 03:21:35;;;;;;;6.83;2.07;;;20.00;92.00;;;;;;5032214;28;20217;-69
2023/06/19 03:24:00;;;;;;;3.00;1.43;;;20.00;92.10;;;;;;5030900;28;20560;-70
2023/06/19 03:26:26;;;;;;;5.00;2.30;;;20.00;92.60;;;;;;5029723;28;20511;-70
2023/06/19 03:28:52;;;;;;;5.00;2.33;;;19.80;92.40;;;;;;5030222;28;20174;-69
2023/06/19 03:31:18;;;;;;;6.17;2.43;;;19.70;92.40;;;;;;5032746;28;20217;-70
2023/06/19 03:33:44;;;;;;;4.67;1.63;;;19.80;92.50;;;;;;5028792;28;20429;-69
2023/06/19 03:36:09;;;;;;;3.37;1.97;;;19.80;92.30;;;;;;5030526;28;20206;-69
2023/06/19 03:38:35;;;;;;;3.27;1.70;;;19.80;92.30;;;;;;5026435;28;20204;-70
2023/06/19 03:41:01;;;;;;;4.40;2.23;;;19.80;92.70;;;;;;5027689;28;20192;-70
2023/06/19 03:43:26;;;;;;;3.23;1.60;;;19.80;93.10;;;;;;5039310;28;20169;-70
2023/06/19 03:45:52;;;;;;;3.27;1.80;;;19.70;93.10;;;;;;5034685;28;20209;-69
2023/06/19 03:48:17;;;;;;;3.60;2.27;;;19.80;93.30;;;;;;5031197;28;20221;-70
2023/06/19 03:50:43;;;;;;;3.30;1.90;;;19.70;93.80;;;;;;5033568;28;20618;-70
2023/06/19 03:53:09;;;;;;;3.10;1.63;;;19.70;93.60;;;;;;5029300;28;20183;-70
2023/06/19 03:55:35;;;;;;;3.80;2.17;;;19.70;93.20;;;;;;5027806;28;20179;-70
2023/06/19 03:58:00;;;;;;;4.10;1.63;;;19.70;93.50;;;;;;5031986;28;20202;-70
2023/06/19 04:00:26;;;;;;;3.63;1.90;;;19.80;93.60;;;;;;5025775;28;20171;-70
2023/06/19 04:02:52;;;;;;;2.93;1.90;;;19.70;94.20;;;;;;5029201;28;20191;-70
2023/06/19 04:05:19;;;;;;;4.20;2.33;;;19.60;94.30;;;;;;5026807;28;20209;-70
2023/06/19 04:07:45;;;;;;;6.63;2.10;;;19.60;95.10;;;;;;5024655;28;20261;-70
2023/06/19 04:10:13;;;;;;;3.80;1.90;;;19.50;95.50;;;;;;5029965;28;20476;-70
2023/06/19 04:12:40;;;;;;;2.93;1.70;;;19.40;95.90;;;;;;5030377;28;20277;-70
2023/06/19 04:15:06;;;;;;;3.57;1.90;;;19.40;95.90;;;;;;5034390;28;20465;-70
2023/06/19 04:17:32;;;;;;;10.03;2.13;;;19.40;96.00;;;;;;5030238;28;20451;-70
2023/06/19 04:19:58;;;;;;;2.60;1.70;;;19.30;96.40;;;;;;5023658;28;20477;-71
2023/06/19 04:22:24;;;;;;;2.60;1.60;;;19.30;96.20;;;;;;5022578;28;20626;-70
2023/06/19 04:24:49;;;;;;;3.47;1.80;;;19.30;96.50;;;;;;5029862;28;20178;-70
2023/06/19 04:27:15;;;;;;;4.60;2.37;;;19.30;96.40;;;;;;5036696;28;20619;-70
2023/06/19 04:29:40;;;;;;;7.03;2.20;;;19.30;96.60;;;;;;5031090;28;20198;-70
2023/06/19 04:32:11;;;;;;;4.50;1.80;;;19.40;96.70;;;;;;5026439;28;20198;-70
2023/06/19 04:34:45;;;;;;;4.30;2.00;;;19.40;97.70;;;;;;5030122;28;20670;-70
2023/06/19 04:37:11;;;;;;;3.40;2.00;;;19.30;98.30;;;;;;5029602;28;20421;-70
2023/06/19 04:39:37;;;;;;;3.50;1.80;;;19.30;99.10;;;;;;5029927;28;20813;-70
2023/06/19 04:42:03;;;;;;;3.03;1.63;;;19.30;98.70;;;;;;5034368;28;20212;-70
2023/06/19 04:44:33;;;;;;;4.47;2.33;;;19.30;98.90;;;;;;5031639;28;20576;-70
2023/06/19 04:47:00;;;;;;;5.33;1.90;;;19.30;99.00;;;;;;5035083;28;20572;-70
2023/06/19 04:49:29;;;;;;;3.30;1.87;;;19.30;99.00;;;;;;5035214;28;20439;-70
2023/06/19 04:51:55;;;;;;;3.20;1.70;;;19.40;99.00;;;;;;5027443;28;20441;-70
2023/06/19 04:54:21;;;;;;;2.47;1.43;;;19.30;99.40;;;;;;5021664;28;20490;-70
2023/06/19 04:56:46;;;;;;;3.97;2.07;;;19.20;99.90;;;;;;5025359;28;20197;-70
2023/06/19 04:59:12;;;;;;;2.43;1.23;;;19.20;99.90;;;;;;5029825;28;20355;-70
2023/06/19 05:01:40;;;;;;;3.33;1.60;;;19.20;99.90;;;;;;5029070;28;20183;-71
2023/06/19 05:04:06;;;;;;;2.80;1.73;;;19.30;99.90;;;;;;5029275;28;20206;-70
2023/06/19 05:06:31;;;;;;;4.17;1.60;;;19.30;99.90;;;;;;5028322;28;20436;-71
2023/06/19 05:08:57;;;;;;;2.73;1.30;;;19.40;99.90;;;;;;5025449;28;20186;-70
2023/06/19 05:11:22;;;;;;;5.30;1.87;;;19.50;99.90;;;;;;5023495;28;20655;-70
2023/06/19 05:13:48;;;;;;;4.20;2.23;;;19.50;99.90;;;;;;5026792;28;20196;-71
2023/06/19 05:16:16;;;;;;;3.50;1.87;;;19.60;99.90;;;;;;5029361;28;21011;-70
2023/06/19 05:18:43;;;;;;;2.13;1.50;;;19.60;99.90;;;;;;5027619;28;20285;-71
2023/06/19 05:21:09;;;;;;;5.30;1.70;;;19.70;99.90;;;;;;5029294;28;20440;-71
2023/06/19 05:23:35;;;;;;;2.07;1.27;;;19.70;99.90;;;;;;5027140;28;20433;-70
2023/06/19 05:26:00;;;;;;;7.40;1.33;;;19.80;99.90;;;;;;5025067;28;20197;-71
2023/06/19 05:28:26;;;;;;;2.43;1.23;;;19.90;99.90;;;;;;5028155;28;20875;-70
2023/06/19 05:30:51;;;;;;;4.27;1.80;;;19.90;99.90;;;;;;5026425;28;20186;-70
2023/06/19 05:33:17;;;;;;;3.10;1.83;;;19.80;99.90;;;;;;5026277;28;20603;-71
2023/06/19 05:35:43;;;;;;;1.83;1.13;;;19.90;99.90;;;;;;5039090;28;20554;-72
2023/06/19 05:38:09;;;;;;;2.80;1.40;;;20.00;99.80;;;;;;5024970;28;20628;-71
2023/06/19 05:40:35;;;;;;;3.03;1.53;;;19.90;99.90;;;;;;5041457;28;20416;-71
2023/06/19 05:43:01;;;;;;;5.33;1.83;;;19.80;99.90;;;;;;5030019;28;20487;-71
2023/06/19 05:45:27;;;;;;;2.97;1.67;;;19.90;99.90;;;;;;5040442;28;20428;-71
2023/06/19 05:47:52;;;;;;;3.10;1.80;;;20.00;99.90;;;;;;5031247;28;20209;-70
2023/06/19 05:50:18;;;;;;;2.97;1.50;;;20.00;99.90;;;;;;5033128;28;20262;-70
2023/06/19 05:52:43;;;;;;;4.00;1.33;;;20.00;99.90;;;;;;5031742;28;20178;-71
2023/06/19 05:55:10;;;;;;;3.40;1.70;;;20.10;99.90;;;;;;5031071;28;20206;-71
2023/06/19 05:57:36;;;;;;;3.30;1.80;;;20.00;99.90;;;;;;5031663;28;20198;-71
2023/06/19 06:00:03;;;;;;;3.40;1.73;;;20.10;99.90;;;;;;5030580;28;20851;-70
2023/06/19 06:02:28;;;;;;;3.40;1.77;;;20.10;99.90;;;;;;5030391;28;20214;-71
2023/06/19 06:04:56;;;;;;;4.73;1.80;;;20.20;99.90;;;;;;5031446;28;20499;-71
2023/06/19 06:07:21;;;;;;;4.87;1.93;;;20.30;99.70;;;;;;5031304;28;20185;-71
2023/06/19 06:09:47;;;;;;;4.33;1.77;;;20.30;99.60;;;;;;5032358;28;20444;-71
2023/06/19 06:12:13;;;;;;;2.37;1.17;;;20.30;99.70;;;;;;5032512;28;20189;-70
2023/06/19 06:14:39;;;;;;;2.60;1.53;;;20.40;99.50;;;;;;5037496;28;20526;-70
2023/06/19 06:17:05;;;;;;;5.60;1.70;;;20.40;99.40;;;;;;5042018;28;20189;-72
2023/06/19 06:19:31;;;;;;;4.70;1.50;;;20.60;98.90;;;;;;5032690;28;20464;-71
2023/06/19 06:21:57;;;;;;;3.00;1.60;;;20.50;99.20;;;;;;5032423;28;20193;-71
2023/06/19 06:24:22;;;;;;;2.30;1.50;;;20.70;99.00;;;;;;5033879;28;20261;-71
2023/06/19 06:26:48;;;;;;;2.43;1.33;;;20.70;98.80;;;;;;5032855;28;20190;-72
2023/06/19 06:29:13;;;;;;;2.73;1.30;;;20.90;98.80;;;;;;5032724;28;20186;-71
2023/06/19 06:31:41;;;;;;;2.90;1.30;;;20.90;98.50;;;;;;5032324;28;20178;-71
2023/06/19 06:34:07;;;;;;;5.77;2.20;;;21.00;98.40;;;;;;5032639;28;20197;-71
2023/06/19 06:36:32;;;;;;;3.40;1.43;;;21.00;98.10;;;;;;5032422;28;20849;-71
2023/06/19 06:38:58;;;;;;;3.40;1.67;;;21.10;98.00;;;;;;5031747;28;20556;-71
2023/06/19 06:41:24;;;;;;;4.47;1.10;;;21.20;98.20;;;;;;5031976;28;20186;-71
2023/06/19 06:43:49;;;;;;;3.10;1.60;;;21.20;97.90;;;;;;5032149;28;20249;-71
2023/06/19 06:46:15;;;;;;;4.13;1.67;;;21.30;97.90;;;;;;5046203;28;20185;-71
2023/06/19 06:48:41;;;;;;;3.13;1.30;;;21.50;97.50;;;;;;5032135;28;20210;-71
2023/06/19 06:51:07;;;;;;;3.50;1.90;;;21.50;97.20;;;;;;5031714;28;20468;-71
2023/06/19 06:53:32;;;;;;;3.10;1.83;;;21.60;97.40;;;;;;5031159;28;20253;-71
2023/06/19 06:55:59;;;;;;;3.90;1.73;;;21.80;96.40;;;;;;5031584;28;20193;-71
2023/06/19 06:58:25;;;;;;;2.90;1.40;;;21.80;96.90;;;;;;5031962;28;20209;-71
2023/06/19 07:00:51;;;;;;;2.50;1.40;;;21.90;96.60;;;;;;5031601;28;20425;-70
2023/06/19 07:03:18;;;;;;;4.00;1.90;;;22.10;96.20;;;;;;5032079;28;20241;-71
2023/06/19 07:05:44;;;;;;;3.17;1.27;;;22.30;96.20;;;;;;5031777;28;21158;-71
2023/06/19 07:08:10;;;;;;;3.00;1.73;;;22.40;95.50;;;;;;5031640;28;20182;-71
2023/06/19 07:10:35;;;;;;;3.73;1.67;;;22.60;95.00;;;;;;5030881;28;20662;-72
2023/06/19 07:13:01;;;;;;;2.63;1.40;;;22.60;94.70;;;;;;5034369;28;20264;-71
2023/06/19 07:15:26;;;;;;;3.40;1.30;;;22.50;94.60;;;;;;5042500;28;20221;-71
2023/06/19 07:17:52;;;;;;;5.37;2.23;;;22.30;94.80;;;;;;5036180;28;20635;-71
2023/06/19 07:20:18;;;;;;;4.63;1.67;;;22.40;95.10;;;;;;5031809;28;20198;-71
2023/06/19 07:22:44;;;;;;;3.07;1.73;;;22.50;95.40;;;;;;5012874;28;20550;-71
2023/06/19 07:25:11;;;;;;;3.43;2.20;;;23.00;94.40;;;;;;5017697;28;20201;-71
2023/06/19 07:27:37;;;;;;;3.53;2.00;;;23.30;93.70;;;;;;5031140;28;20424;-71
2023/06/19 07:30:03;;;;;;;3.00;1.43;;;23.50;93.90;;;;;;5029563;28;20511;-71
2023/06/19 07:32:29;;;;;;;6.73;1.90;;;24.00;92.80;;;;;;5036546;28;20571;-71
2023/06/19 07:34:54;;;;;;;3.83;1.43;;;24.10;92.30;;;;;;5029301;28;20281;-71
2023/06/19 07:37:20;;;;;;;5.90;2.03;;;24.20;92.20;;;;;;5029215;28;20248;-70
2023/06/19 07:39:51;;;;;;;2.97;1.93;;;24.20;92.30;;;;;;5029900;28;20247;-71
2023/06/19 07:42:18;;;;;;;3.23;2.10;;;24.00;91.80;;;;;;5028854;28;20189;-71
2023/06/19 07:44:45;;;;;;;2.27;1.00;;;23.80;92.10;;;;;;5033961;28;20438;-69
2023/06/19 07:47:11;;;;;;;4.20;2.30;;;23.50;92.40;;;;;;5039253;28;20428;-70
2023/06/19 07:49:37;;;;;;;4.40;1.80;;;23.40;92.50;;;;;;5030565;28;20511;-71
2023/06/19 07:52:04;;;;;;;2.57;1.40;;;23.50;93.00;;;;;;5029415;28;20478;-72
2023/06/19 07:54:29;;;;;;;4.33;1.80;;;23.50;93.10;;;;;;5032197;28;20432;-70
2023/06/19 07:56:55;;;;;;;3.93;2.07;;;23.60;92.50;;;;;;5028679;28;20432;-70
2023/06/19 07:59:22;;;;;;;3.57;1.80;;;23.50;92.60;;;;;;5028610;28;20228;-71
2023/06/19 08:01:48;;;;;;;2.00;1.33;;;23.50;92.50;;;;;;5028386;28;20955;-70
2023/06/19 08:04:14;;;;;;;4.87;2.10;;;23.50;92.30;;;;;;5028911;28;20440;-70
2023/06/19 08:06:39;;;;;;;2.97;1.97;;;23.60;92.20;;;;;;5028644;28;20670;-70
2023/06/19 08:09:05;;;;;;;4.53;2.40;;;23.80;91.90;;;;;;5028389;28;20307;-71
2023/06/19 08:11:31;;;;;;;2.47;1.30;;;24.00;91.00;;;;;;5028339;28;20815;-71
2023/06/19 08:13:56;;;;;;;4.40;2.10;;;24.70;90.00;;;;;;5035514;28;20194;-70
2023/06/19 08:16:24;;;;;;;2.67;1.63;;;24.80;89.20;;;;;;5036163;28;20217;-71
2023/06/19 08:18:50;;;;;;;3.10;2.07;;;25.30;88.80;;;;;;5028844;28;20233;-71
2023/06/19 08:21:15;;;;;;;3.50;1.57;;;25.80;87.00;;;;;;5028076;28;20476;-71
2023/06/19 08:23:43;;;;;;;3.77;1.90;;;26.40;85.20;;;;;;5036623;28;20287;-71
2023/06/19 08:26:09;;;;;;;3.53;1.65;;;27.50;82.10;;;;;;5030353;28;20193;-71
2023/06/19 08:28:35;;;;;;;3.55;1.55;;;28.40;78.90;;;;;;5028937;28;20181;-71
2023/06/19 08:31:00;;;;;;;16.48;2.00;;;29.30;75.80;;;;;;5028070;28;20217;-71
2023/06/19 08:33:26;;;;;;;3.40;1.52;;;29.30;73.80;;;;;;5028446;28;20666;-69
2023/06/19 08:35:52;;;;;;;2.33;1.48;;;29.30;73.10;;;;;;5028227;28;20209;-68
2023/06/19 08:38:18;;;;;;;4.28;1.90;;;29.40;72.30;;;;;;5028321;28;20555;-69
2023/06/19 08:40:44;;;;;;;3.15;1.48;;;29.80;70.60;;;;;;5027966;28;20185;-70
2023/06/19 08:43:10;;;;;;;2.88;1.42;;;29.50;69.60;;;;;;5029184;28;20174;-68
2023/06/19 08:45:36;;;;;;;6.20;1.55;;;28.80;69.90;;;;;;5038947;28;20188;-67
2023/06/19 08:48:03;;;;;;;2.90;1.73;;;28.40;71.90;;;;;;5032350;28;20186;-68
2023/06/19 08:50:30;;;;;;;2.72;1.27;;;27.80;73.40;;;;;;5028655;28;20190;-67
2023/06/19 08:52:56;;;;;;;2.70;1.35;;;27.30;75.30;;;;;;5028519;28;20178;-68
2023/06/19 08:55:22;;;;;;;2.30;1.33;;;26.80;76.70;;;;;;5029898;28;20528;-68
2023/06/19 08:57:49;;;;;;;11.27;2.30;;;26.10;78.70;;;;;;5030466;28;20285;-70
2023/06/19 09:00:23;;;;;;;6.30;1.93;;;26.00;78.80;;;;;;5029308;28;20493;-70
2023/06/19 09:02:49;;;;;;;3.50;1.97;;;25.60;80.50;;;;;;5029659;28;20659;-68
2023/06/19 09:05:16;;;;;;;4.20;1.33;;;25.50;82.20;;;;;;5029727;28;20208;-70
2023/06/19 09:07:43;;;;;;;4.33;1.50;;;25.30;81.50;;;;;;5029946;28;20174;-70
2023/06/19 09:10:17;;;;;;;7.90;1.33;;;25.20;81.80;;;;;;5018059;28;20177;-70
2023/06/19 09:12:44;;;;;;;4.93;2.00;;;25.00;82.60;;;;;;5033119;28;20471;-70
2023/06/19 09:15:14;;;;;;;4.30;2.20;;;25.20;83.60;;;;;;5041798;28;20418;-70
2023/06/19 09:17:40;;;;;;;2.83;1.50;;;25.20;82.00;;;;;;5038338;28;20428;-70
2023/06/19 09:20:07;;;;;;;2.60;1.60;;;25.30;82.90;;;;;;5032719;28;21018;-70
2023/06/19 09:22:32;;;;;;;3.70;1.37;;;25.20;83.40;;;;;;5032350;28;20204;-70
2023/06/19 09:25:02;;;;;;;2.90;1.73;;;25.80;81.10;;;;;;5041279;28;20416;-70
2023/06/19 09:27:33;;;;;;;3.20;2.00;;;26.00;80.60;;;;;;5033079;28;20212;-71
2023/06/19 09:29:59;;;;;;;2.97;1.60;;;26.00;80.80;;;;;;5032652;28;20216;-71
2023/06/19 09:32:26;;;;;;;2.80;1.50;;;26.50;79.60;;;;;;5033323;28;20488;-68
2023/06/19 09:34:53;;;;;;;3.08;1.63;;;27.30;77.60;;;;;;5033744;28;20273;-68
2023/06/19 09:37:24;;;;;;;3.10;1.63;;;27.40;76.90;;;;;;5033657;28;20198;-68
2023/06/19 09:39:58;;;;;;;2.60;1.67;;;28.00;75.40;;;;;;5032704;28;20198;-68
2023/06/19 09:42:34;;;;;;;15.20;1.55;;;28.10;73.60;;;;;;5032982;28;20184;-68
2023/06/19 09:45:04;;;;;;;3.42;1.50;;;28.30;74.60;;;;;;5040308;28;20192;-67
2023/06/19 09:47:43;;;;;;;4.00;1.70;;;28.30;72.70;;;;;;5040189;28;20213;-68
2023/06/19 09:50:12;;;;;;;19.90;1.38;;;28.50;73.60;;;;;;5032987;28;20192;-68
2023/06/19 09:52:39;;;;;;;2.65;1.20;;;28.60;72.10;;;;;;5032561;28;20217;-68
2023/06/19 09:55:06;;;;;;;2.53;1.23;;;28.90;71.50;;;;;;5031747;28;20239;-68
2023/06/19 09:57:33;;;;;;;2.00;1.00;;;29.20;69.40;;;;;;5033119;28;20182;-68
2023/06/19 10:00:09;;;;;;;2.90;1.83;;;29.50;69.30;;;;;;5032757;28;20209;-68
2023/06/19 10:02:36;;;;;;;2.40;1.40;;;29.80;67.60;;;;;;5032588;28;20267;-68
2023/06/19 10:05:01;;;;;;;3.40;1.58;;;30.00;66.70;;;;;;5032783;28;20198;-68
2023/06/19 10:07:34;;;;;;;3.65;2.20;;;30.10;66.80;;;;;;5032705;28;20299;-68
2023/06/19 10:10:08;;;;;;;2.92;1.63;;;29.70;67.60;;;;;;5032102;28;20265;-68
2023/06/19 10:12:55;;;;;;;3.08;1.40;;;29.50;68.10;;;;;;5032210;28;20185;-67
2023/06/19 10:15:27;;;;;;;2.72;1.58;;;29.20;68.20;;;;;;5042423;28;20190;-68
2023/06/19 10:17:53;;;;;;;3.03;1.52;;;29.60;67.30;;;;;;5035965;28;20618;-68
2023/06/19 10:20:21;;;;;;;4.07;1.80;;;29.20;68.00;;;;;;5032590;28;20257;-68
2023/06/19 10:23:07;;;;;;;4.13;1.60;;;28.90;68.80;;;;;;5032022;28;20182;-68
2023/06/19 10:25:43;;;;;;;1.70;0.93;;;29.00;68.60;;;;;;5025297;28;20223;-68
2023/06/19 10:28:26;;;;;;;3.17;1.40;;;28.80;67.80;;;;;;5032693;28;20173;-67
2023/06/19 10:31:06;;;;;;;2.15;1.20;;;28.80;67.20;;;;;;5032067;28;20531;-68
2023/06/19 10:33:34;;;;;;;1.63;0.90;;;29.00;66.60;;;;;;5032168;28;20841;-67
2023/06/19 10:36:02;;;;;;;3.15;1.20;;;29.10;65.30;;;;;;5032176;28;20240;-68
2023/06/19 10:38:28;;;;;;;1.80;1.00;;;29.40;66.10;;;;;;5031965;28;20202;-68
2023/06/19 10:40:54;;;;;;;3.38;1.70;;;29.40;65.70;;;;;;5031274;28;20181;-68
2023/06/19 10:43:22;;;;;;;2.28;1.23;;;29.40;66.30;;;;;;5032053;28;20257;-68
2023/06/19 10:45:48;;;;;;;2.58;1.25;;;29.50;65.30;;;;;;5043871;28;20569;-68
2023/06/19 10:48:19;;;;;;;2.53;1.05;;;29.50;66.40;;;;;;5034629;28;20182;-68
2023/06/19 10:50:45;;;;;;;1.98;1.10;;;30.00;64.00;;;;;;5019193;28;20277;-68
2023/06/19 10:53:10;;;;;;;2.40;1.20;;;30.20;63.70;;;;;;5031740;28;20192;-68
2023/06/19 10:55:36;;;;;;;2.65;1.17;;;30.50;59.80;;;;;;5031724;28;20181;-67
2023/06/19 10:58:01;;;;;;;2.58;1.52;;;30.60;58.70;;;;;;5031708;28;20547;-68
2023/06/19 11:00:32;;;;;;;2.22;1.00;;;30.50;59.50;;;;;;5031797;28;20299;-70
2023/06/19 11:02:58;;;;;;;2.42;1.27;;;30.20;59.60;;;;;;5031708;28;20206;-68
2023/06/19 11:05:26;;;;;;;2.70;1.48;;;30.10;60.90;;;;;;5032020;28;20186;-68
2023/06/19 11:07:57;;;;;;;2.78;1.10;;;29.90;61.00;;;;;;5031590;28;20258;-68
2023/06/19 11:10:24;;;;;;;1.58;0.75;;;29.50;62.90;;;;;;5031579;28;20568;-67
2023/06/19 11:12:59;;;;;;;2.60;1.30;;;29.60;62.30;;;;;;5030853;28;20558;-68
2023/06/19 11:15:34;;;;;;;5.88;1.70;;;29.50;63.10;;;;;;5042017;28;20235;-67
2023/06/19 11:18:02;;;;;;;7.45;1.10;;;29.50;63.40;;;;;;5033196;28;20184;-68
2023/06/19 11:20:28;;;;;;;4.63;1.52;;;29.60;62.60;;;;;;5031495;28;20642;-68
2023/06/19 11:22:59;;;;;;;2.63;1.13;;;29.30;63.40;;;;;;5032370;28;20173;-68
2023/06/19 11:25:35;;;;;;;1.90;1.10;;;29.00;64.80;;;;;;5031258;28;20192;-68
2023/06/19 11:28:01;;;;;;;3.20;1.65;;;28.80;64.40;;;;;;5018220;28;20653;-68
2023/06/19 11:30:33;;;;;;;3.08;1.65;;;28.70;65.40;;;;;;5031161;28;20186;-69
2023/06/19 11:33:00;;;;;;;2.08;1.27;;;28.30;68.80;;;;;;5018753;28;20188;-68
2023/06/19 11:35:34;;;;;;;2.42;1.50;;;27.90;68.80;;;;;;5031044;28;20709;-68
2023/06/19 11:37:59;;;;;;;4.95;2.25;;;27.80;70.40;;;;;;5031150;28;20539;-69
2023/06/19 11:40:25;;;;;;;3.30;1.90;;;27.60;72.90;;;;;;5030399;28;20224;-81
2023/06/19 11:42:54;;;;;;;3.97;2.30;;;27.50;75.00;;;;;;5030812;28;20181;-69
2023/06/19 11:45:20;;;;;;;3.67;2.10;;;27.30;75.20;;;;;;5039960;28;20500;-68
2023/06/19 11:47:46;;;;;;;5.43;2.00;;;27.50;74.80;;;;;;5036873;28;20178;-69
2023/06/19 11:50:13;;;;;;;3.77;2.30;;;27.70;74.50;;;;;;5030800;28;20214;-69
2023/06/19 11:52:39;;;;;;;3.83;1.80;;;27.90;74.80;;;;;;5030569;28;20185;-68
2023/06/19 11:55:06;;;;;;;2.80;1.70;;;28.00;74.00;;;;;;5030332;28;20190;-68
2023/06/19 11:57:33;;;;;;;4.38;2.10;;;28.40;74.10;;;;;;5031152;28;20519;-68
2023/06/19 11:59:58;;;;;;;2.67;1.38;;;28.80;71.20;;;;;;5030646;28;20380;-68
2023/06/19 12:02:24;;;;;;;3.13;1.75;;;28.90;71.00;;;;;;5030503;28;20170;-67
2023/06/19 12:04:50;;;;;;;3.88;1.80;;;28.90;70.50;;;;;;5030610;28;20247;-68
2023/06/19 12:07:15;;;;;;;2.47;1.33;;;29.00;68.50;;;;;;5030927;28;20188;-67
2023/06/19 12:09:43;;;;;;;2.45;1.38;;;28.80;70.40;;;;;;5029909;28;20190;-67
2023/06/19 12:12:09;;;;;;;4.18;1.98;;;29.20;69.20;;;;;;5030447;28;20177;-68
2023/06/19 12:14:34;;;;;;;3.92;1.88;;;29.40;68.60;;;;;;5038802;28;20761;-68
2023/06/19 12:17:00;;;;;;;3.50;1.52;;;29.50;68.70;;;;;;5036609;28;20185;-67
2023/06/19 12:19:27;;;;;;;3.47;1.63;;;29.90;68.80;;;;;;5030457;28;20224;-68
2023/06/19 12:21:53;;;;;;;2.38;1.42;;;29.80;67.80;;;;;;5030369;28;20182;-68
2023/06/19 12:24:19;;;;;;;2.65;1.38;;;29.60;68.10;;;;;;5032401;28;20184;-68
2023/06/19 12:26:44;;;;;;;2.65;1.65;;;29.70;66.80;;;;;;5030946;28;20190;-68
2023/06/19 12:29:10;;;;;;;3.38;1.45;;;29.40;66.80;;;;;;5030654;28;20218;-68
2023/06/19 12:31:36;;;;;;;2.83;1.80;;;28.90;69.80;;;;;;5030124;28;20189;-68
2023/06/19 12:34:02;;;;;;;2.75;1.50;;;29.00;67.00;;;;;;5030332;28;20178;-68
2023/06/19 12:36:28;;;;;;;3.92;2.20;;;29.00;67.20;;;;;;5030739;28;20224;-68
2023/06/19 12:38:54;;;;;;;3.20;1.33;;;29.20;67.20;;;;;;5029842;28;20211;-69
2023/06/19 12:41:22;;;;;;;3.17;1.73;;;29.30;65.80;;;;;;5030239;28;20228;-68
2023/06/19 12:43:48;;;;;;;4.22;1.48;;;29.50;66.80;;;;;;5030479;28;20182;-68